sensor_id;sensor_type;location;lat;lon;timestamp;P1;durP1;ratioP1;P2;durP2;ratioP2
44995;SDS011;30729;49.486;10.792;2023-03-11T00:02:56;1.05;;;0.75;;
44995;SDS011;30729;49.486;10.792;2023-03-11T00:06:20;1.33;;;0.73;;
44995;SDS011;30729;49.486;10.792;2023-03-11T00:09:44;1.77;;;0.85;;
44995;SDS011;30729;49.486;10.792;2023-03-11T00:13:10;1.02;;;0.65;;
44995;SDS011;30729;49.486;10.792;2023-03-11T00:16:35;1.95;;;0.88;;
44995;SDS011;30729;49.486;10.792;2023-03-11T00:19:59;2.72;;;1.00;;
44995;SDS011;30729;49.486;10.792;2023-03-11T00:23:24;0.80;;;0.75;;
44995;SDS011;30729;49.486;10.792;2023-03-11T00:26:48;1.85;;;0.98;;
44995;SDS011;30729;49.486;10.792;2023-03-11T00:30:13;2.13;;;1.02;;
44995;SDS011;30729;49.486;10.792;2023-03-11T00:33:38;1.48;;;1.08;;
44995;SDS011;30729;49.486;10.792;2023-03-11T00:37:02;1.65;;;1.08;;
44995;SDS011;30729;49.486;10.792;2023-03-11T00:40:28;1.88;;;1.00;;
44995;SDS011;30729;49.486;10.792;2023-03-11T00:43:53;1.52;;;0.88;;
44995;SDS011;30729;49.486;10.792;2023-03-11T00:47:16;2.22;;;1.10;;
44995;SDS011;30729;49.486;10.792;2023-03-11T00:50:40;1.85;;;0.90;;
44995;SDS011;30729;49.486;10.792;2023-03-11T00:54:04;0.60;;;0.60;;
44995;SDS011;30729;49.486;10.792;2023-03-11T00:57:29;1.23;;;0.70;;
44995;SDS011;30729;49.486;10.792;2023-03-11T01:00:54;3.00;;;1.00;;
44995;SDS011;30729;49.486;10.792;2023-03-11T01:04:18;1.33;;;1.00;;
44995;SDS011;30729;49.486;10.792;2023-03-11T01:07:43;0.60;;;0.60;;
44995;SDS011;30729;49.486;10.792;2023-03-11T01:11:07;0.68;;;0.68;;
44995;SDS011;30729;49.486;10.792;2023-03-11T01:14:31;0.90;;;0.57;;
44995;SDS011;30729;49.486;10.792;2023-03-11T01:17:56;0.85;;;0.70;;
44995;SDS011;30729;49.486;10.792;2023-03-11T01:21:20;1.08;;;0.70;;
44995;SDS011;30729;49.486;10.792;2023-03-11T01:24:44;0.90;;;0.70;;
44995;SDS011;30729;49.486;10.792;2023-03-11T01:28:08;1.05;;;0.70;;
44995;SDS011;30729;49.486;10.792;2023-03-11T01:31:32;2.00;;;0.82;;
44995;SDS011;30729;49.486;10.792;2023-03-11T01:34:56;2.22;;;1.23;;
44995;SDS011;30729;49.486;10.792;2023-03-11T01:38:20;1.23;;;0.82;;
44995;SDS011;30729;49.486;10.792;2023-03-11T01:41:44;2.47;;;1.17;;
44995;SDS011;30729;49.486;10.792;2023-03-11T01:46:04;2.10;;;1.10;;
44995;SDS011;30729;49.486;10.792;2023-03-11T01:49:24;2.60;;;0.90;;
44995;SDS011;30729;49.486;10.792;2023-03-11T01:52:49;2.08;;;1.13;;
44995;SDS011;30729;49.486;10.792;2023-03-11T01:56:13;1.95;;;1.13;;
44995;SDS011;30729;49.486;10.792;2023-03-11T01:59:39;2.85;;;1.10;;
44995;SDS011;30729;49.486;10.792;2023-03-11T02:03:08;4.03;;;1.48;;
44995;SDS011;30729;49.486;10.792;2023-03-11T02:06:33;6.07;;;1.23;;
44995;SDS011;30729;49.486;10.792;2023-03-11T02:09:58;2.15;;;1.20;;
44995;SDS011;30729;49.486;10.792;2023-03-11T02:13:22;1.80;;;1.02;;
44995;SDS011;30729;49.486;10.792;2023-03-11T02:16:47;2.25;;;1.00;;
44995;SDS011;30729;49.486;10.792;2023-03-11T02:20:28;2.85;;;1.52;;
44995;SDS011;30729;49.486;10.792;2023-03-11T02:24:00;2.50;;;1.15;;
44995;SDS011;30729;49.486;10.792;2023-03-11T02:27:27;3.75;;;1.27;;
44995;SDS011;30729;49.486;10.792;2023-03-11T02:30:52;2.08;;;0.98;;
44995;SDS011;30729;49.486;10.792;2023-03-11T02:34:37;1.98;;;1.08;;
44995;SDS011;30729;49.486;10.792;2023-03-11T02:38:02;2.25;;;0.93;;
44995;SDS011;30729;49.486;10.792;2023-03-11T02:41:26;1.52;;;1.05;;
44995;SDS011;30729;49.486;10.792;2023-03-11T02:44:59;2.42;;;1.02;;
44995;SDS011;30729;49.486;10.792;2023-03-11T02:48:24;1.35;;;0.93;;
44995;SDS011;30729;49.486;10.792;2023-03-11T02:51:48;0.73;;;0.68;;
44995;SDS011;30729;49.486;10.792;2023-03-11T02:55:13;0.80;;;0.70;;
44995;SDS011;30729;49.486;10.792;2023-03-11T02:58:38;1.33;;;0.88;;
44995;SDS011;30729;49.486;10.792;2023-03-11T03:02:01;2.22;;;1.00;;
44995;SDS011;30729;49.486;10.792;2023-03-11T03:05:25;1.38;;;0.70;;
44995;SDS011;30729;49.486;10.792;2023-03-11T03:08:50;2.15;;;1.23;;
44995;SDS011;30729;49.486;10.792;2023-03-11T03:12:14;1.13;;;0.60;;
44995;SDS011;30729;49.486;10.792;2023-03-11T03:15:38;3.97;;;0.90;;
44995;SDS011;30729;49.486;10.792;2023-03-11T03:19:01;1.30;;;0.95;;
44995;SDS011;30729;49.486;10.792;2023-03-11T03:22:25;1.48;;;0.90;;
44995;SDS011;30729;49.486;10.792;2023-03-11T03:25:49;1.23;;;0.90;;
44995;SDS011;30729;49.486;10.792;2023-03-11T03:29:13;0.90;;;0.80;;
44995;SDS011;30729;49.486;10.792;2023-03-11T03:32:37;1.80;;;1.10;;
44995;SDS011;30729;49.486;10.792;2023-03-11T03:36:04;2.20;;;0.90;;
44995;SDS011;30729;49.486;10.792;2023-03-11T03:39:28;1.25;;;0.90;;
44995;SDS011;30729;49.486;10.792;2023-03-11T03:42:52;3.00;;;0.90;;
44995;SDS011;30729;49.486;10.792;2023-03-11T03:46:17;2.38;;;1.00;;
44995;SDS011;30729;49.486;10.792;2023-03-11T03:49:41;1.83;;;1.05;;
44995;SDS011;30729;49.486;10.792;2023-03-11T03:53:05;2.95;;;0.98;;
44995;SDS011;30729;49.486;10.792;2023-03-11T03:56:29;1.70;;;0.77;;
44995;SDS011;30729;49.486;10.792;2023-03-11T03:59:53;1.42;;;0.73;;
44995;SDS011;30729;49.486;10.792;2023-03-11T04:03:19;1.88;;;0.80;;
44995;SDS011;30729;49.486;10.792;2023-03-11T04:06:43;0.52;;;0.40;;
44995;SDS011;30729;49.486;10.792;2023-03-11T04:10:07;1.30;;;0.70;;
44995;SDS011;30729;49.486;10.792;2023-03-11T04:13:31;2.58;;;1.08;;
44995;SDS011;30729;49.486;10.792;2023-03-11T04:16:55;1.20;;;0.70;;
44995;SDS011;30729;49.486;10.792;2023-03-11T04:20:19;1.55;;;0.85;;
44995;SDS011;30729;49.486;10.792;2023-03-11T04:23:43;2.88;;;0.88;;
44995;SDS011;30729;49.486;10.792;2023-03-11T04:27:07;1.70;;;0.65;;
44995;SDS011;30729;49.486;10.792;2023-03-11T04:30:31;1.55;;;0.85;;
44995;SDS011;30729;49.486;10.792;2023-03-11T04:33:55;1.67;;;0.65;;
44995;SDS011;30729;49.486;10.792;2023-03-11T04:37:18;0.65;;;0.57;;
44995;SDS011;30729;49.486;10.792;2023-03-11T04:40:42;3.28;;;0.80;;
44995;SDS011;30729;49.486;10.792;2023-03-11T04:44:06;0.93;;;0.70;;
44995;SDS011;30729;49.486;10.792;2023-03-11T04:47:31;1.55;;;0.80;;
44995;SDS011;30729;49.486;10.792;2023-03-11T04:50:55;2.22;;;0.90;;
44995;SDS011;30729;49.486;10.792;2023-03-11T04:54:19;1.33;;;0.80;;
44995;SDS011;30729;49.486;10.792;2023-03-11T04:57:43;3.83;;;0.70;;
44995;SDS011;30729;49.486;10.792;2023-03-11T05:01:07;3.63;;;1.27;;
44995;SDS011;30729;49.486;10.792;2023-03-11T05:04:31;2.80;;;0.82;;
44995;SDS011;30729;49.486;10.792;2023-03-11T05:07:54;2.40;;;1.00;;
44995;SDS011;30729;49.486;10.792;2023-03-11T05:11:18;1.95;;;1.00;;
44995;SDS011;30729;49.486;10.792;2023-03-11T05:14:42;3.08;;;0.90;;
44995;SDS011;30729;49.486;10.792;2023-03-11T05:18:06;1.50;;;0.73;;
44995;SDS011;30729;49.486;10.792;2023-03-11T05:21:50;2.00;;;1.10;;
44995;SDS011;30729;49.486;10.792;2023-03-11T05:25:14;4.47;;;1.20;;
44995;SDS011;30729;49.486;10.792;2023-03-11T05:28:38;1.85;;;0.85;;
44995;SDS011;30729;49.486;10.792;2023-03-11T05:32:02;2.50;;;0.80;;
44995;SDS011;30729;49.486;10.792;2023-03-11T05:35:26;4.35;;;1.10;;
44995;SDS011;30729;49.486;10.792;2023-03-11T05:38:50;3.17;;;1.40;;
44995;SDS011;30729;49.486;10.792;2023-03-11T05:42:15;3.63;;;1.00;;
44995;SDS011;30729;49.486;10.792;2023-03-11T05:45:40;3.47;;;1.13;;
44995;SDS011;30729;49.486;10.792;2023-03-11T05:49:04;2.38;;;0.98;;
44995;SDS011;30729;49.486;10.792;2023-03-11T05:52:28;3.60;;;1.27;;
44995;SDS011;30729;49.486;10.792;2023-03-11T05:55:56;3.60;;;1.50;;
44995;SDS011;30729;49.486;10.792;2023-03-11T05:59:20;4.47;;;1.40;;
44995;SDS011;30729;49.486;10.792;2023-03-11T06:02:44;2.35;;;1.25;;
44995;SDS011;30729;49.486;10.792;2023-03-11T06:06:09;3.20;;;1.30;;
44995;SDS011;30729;49.486;10.792;2023-03-11T06:09:36;2.50;;;1.55;;
44995;SDS011;30729;49.486;10.792;2023-03-11T06:13:00;3.97;;;1.30;;
44995;SDS011;30729;49.486;10.792;2023-03-11T06:16:24;5.72;;;1.90;;
44995;SDS011;30729;49.486;10.792;2023-03-11T06:19:48;6.60;;;1.58;;
44995;SDS011;30729;49.486;10.792;2023-03-11T06:23:12;3.20;;;1.45;;
44995;SDS011;30729;49.486;10.792;2023-03-11T06:26:36;5.40;;;1.17;;
44995;SDS011;30729;49.486;10.792;2023-03-11T06:29:59;5.90;;;2.15;;
44995;SDS011;30729;49.486;10.792;2023-03-11T06:33:33;2.88;;;1.45;;
44995;SDS011;30729;49.486;10.792;2023-03-11T06:36:57;3.30;;;1.42;;
44995;SDS011;30729;49.486;10.792;2023-03-11T06:40:21;4.57;;;1.40;;
44995;SDS011;30729;49.486;10.792;2023-03-11T06:43:45;5.00;;;1.40;;
44995;SDS011;30729;49.486;10.792;2023-03-11T06:47:10;4.75;;;1.50;;
44995;SDS011;30729;49.486;10.792;2023-03-11T06:50:34;6.00;;;1.90;;
44995;SDS011;30729;49.486;10.792;2023-03-11T06:53:59;6.90;;;2.03;;
44995;SDS011;30729;49.486;10.792;2023-03-11T06:57:22;3.75;;;1.45;;
44995;SDS011;30729;49.486;10.792;2023-03-11T07:00:46;4.28;;;1.35;;
44995;SDS011;30729;49.486;10.792;2023-03-11T07:04:10;4.82;;;1.67;;
44995;SDS011;30729;49.486;10.792;2023-03-11T07:07:34;3.00;;;1.40;;
44995;SDS011;30729;49.486;10.792;2023-03-11T07:11:05;2.85;;;1.50;;
44995;SDS011;30729;49.486;10.792;2023-03-11T07:14:29;3.97;;;1.58;;
44995;SDS011;30729;49.486;10.792;2023-03-11T07:17:53;3.70;;;1.85;;
44995;SDS011;30729;49.486;10.792;2023-03-11T07:21:20;6.80;;;1.95;;
44995;SDS011;30729;49.486;10.792;2023-03-11T07:24:44;5.40;;;1.58;;
44995;SDS011;30729;49.486;10.792;2023-03-11T07:28:12;5.53;;;2.47;;
44995;SDS011;30729;49.486;10.792;2023-03-11T07:31:36;2.90;;;1.67;;
44995;SDS011;30729;49.486;10.792;2023-03-11T07:35:00;6.45;;;2.47;;
44995;SDS011;30729;49.486;10.792;2023-03-11T07:38:24;4.03;;;1.95;;
44995;SDS011;30729;49.486;10.792;2023-03-11T07:41:48;4.80;;;1.65;;
44995;SDS011;30729;49.486;10.792;2023-03-11T07:45:12;5.18;;;2.03;;
44995;SDS011;30729;49.486;10.792;2023-03-11T07:48:37;7.10;;;2.10;;
44995;SDS011;30729;49.486;10.792;2023-03-11T07:52:02;4.90;;;1.80;;
44995;SDS011;30729;49.486;10.792;2023-03-11T07:55:26;3.95;;;1.40;;
44995;SDS011;30729;49.486;10.792;2023-03-11T07:58:51;2.90;;;1.30;;
44995;SDS011;30729;49.486;10.792;2023-03-11T08:02:15;3.17;;;1.40;;
44995;SDS011;30729;49.486;10.792;2023-03-11T08:05:39;4.35;;;1.58;;
44995;SDS011;30729;49.486;10.792;2023-03-11T08:09:04;2.92;;;1.70;;
44995;SDS011;30729;49.486;10.792;2023-03-11T08:12:28;5.57;;;1.75;;
44995;SDS011;30729;49.486;10.792;2023-03-11T08:15:52;2.78;;;1.50;;
44995;SDS011;30729;49.486;10.792;2023-03-11T08:19:16;2.30;;;1.40;;
44995;SDS011;30729;49.486;10.792;2023-03-11T08:22:40;4.15;;;1.40;;
44995;SDS011;30729;49.486;10.792;2023-03-11T08:26:04;2.80;;;1.20;;
44995;SDS011;30729;49.486;10.792;2023-03-11T08:29:29;1.98;;;1.15;;
44995;SDS011;30729;49.486;10.792;2023-03-11T08:32:53;3.95;;;1.65;;
44995;SDS011;30729;49.486;10.792;2023-03-11T08:36:18;4.22;;;1.63;;
44995;SDS011;30729;49.486;10.792;2023-03-11T08:39:42;2.42;;;1.45;;
44995;SDS011;30729;49.486;10.792;2023-03-11T08:43:06;4.80;;;1.75;;
44995;SDS011;30729;49.486;10.792;2023-03-11T08:46:34;3.50;;;1.30;;
44995;SDS011;30729;49.486;10.792;2023-03-11T08:50:00;4.45;;;1.35;;
44995;SDS011;30729;49.486;10.792;2023-03-11T08:53:24;6.57;;;1.52;;
44995;SDS011;30729;49.486;10.792;2023-03-11T08:56:48;2.17;;;1.17;;
44995;SDS011;30729;49.486;10.792;2023-03-11T09:00:12;2.00;;;1.40;;
44995;SDS011;30729;49.486;10.792;2023-03-11T09:03:36;4.45;;;1.50;;
44995;SDS011;30729;49.486;10.792;2023-03-11T09:07:00;6.05;;;1.55;;
44995;SDS011;30729;49.486;10.792;2023-03-11T09:10:24;3.47;;;1.35;;
44995;SDS011;30729;49.486;10.792;2023-03-11T09:13:48;5.93;;;1.38;;
44995;SDS011;30729;49.486;10.792;2023-03-11T09:17:12;4.75;;;1.58;;
44995;SDS011;30729;49.486;10.792;2023-03-11T09:20:37;3.25;;;1.55;;
44995;SDS011;30729;49.486;10.792;2023-03-11T09:24:02;2.83;;;1.50;;
44995;SDS011;30729;49.486;10.792;2023-03-11T09:27:27;3.00;;;1.70;;
44995;SDS011;30729;49.486;10.792;2023-03-11T09:30:51;3.80;;;1.50;;
44995;SDS011;30729;49.486;10.792;2023-03-11T09:34:15;3.78;;;1.25;;
44995;SDS011;30729;49.486;10.792;2023-03-11T09:37:39;4.03;;;1.58;;
44995;SDS011;30729;49.486;10.792;2023-03-11T09:51:29;4.38;;;1.73;;
44995;SDS011;30729;49.486;10.792;2023-03-11T09:55:28;2.47;;;1.27;;
44995;SDS011;30729;49.486;10.792;2023-03-11T09:58:55;4.93;;;1.48;;
44995;SDS011;30729;49.486;10.792;2023-03-11T10:02:23;6.85;;;1.50;;
44995;SDS011;30729;49.486;10.792;2023-03-11T10:09:49;4.00;;;1.33;;
44995;SDS011;30729;49.486;10.792;2023-03-11T10:13:43;4.65;;;1.30;;
44995;SDS011;30729;49.486;10.792;2023-03-11T10:25:14;4.63;;;2.63;;
44995;SDS011;30729;49.486;10.792;2023-03-11T10:28:39;5.40;;;1.60;;
44995;SDS011;30729;49.486;10.792;2023-03-11T10:32:25;2.38;;;1.48;;
44995;SDS011;30729;49.486;10.792;2023-03-11T10:35:55;3.35;;;1.35;;
44995;SDS011;30729;49.486;10.792;2023-03-11T10:39:28;3.60;;;1.30;;
44995;SDS011;30729;49.486;10.792;2023-03-11T10:42:58;4.40;;;1.33;;
44995;SDS011;30729;49.486;10.792;2023-03-11T10:46:47;3.15;;;1.33;;
44995;SDS011;30729;49.486;10.792;2023-03-11T10:50:13;2.42;;;1.50;;
44995;SDS011;30729;49.486;10.792;2023-03-11T10:53:45;4.28;;;1.33;;
44995;SDS011;30729;49.486;10.792;2023-03-11T10:57:18;2.20;;;1.40;;
44995;SDS011;30729;49.486;10.792;2023-03-11T11:00:58;4.10;;;1.48;;
44995;SDS011;30729;49.486;10.792;2023-03-11T11:04:37;4.78;;;1.90;;
44995;SDS011;30729;49.486;10.792;2023-03-11T11:08:12;3.08;;;1.20;;
44995;SDS011;30729;49.486;10.792;2023-03-11T11:11:41;4.43;;;1.00;;
44995;SDS011;30729;49.486;10.792;2023-03-11T11:19:08;1.63;;;0.90;;
44995;SDS011;30729;49.486;10.792;2023-03-11T11:22:40;2.20;;;0.85;;
44995;SDS011;30729;49.486;10.792;2023-03-11T11:26:27;2.42;;;1.20;;
44995;SDS011;30729;49.486;10.792;2023-03-11T11:30:12;3.40;;;1.60;;
44995;SDS011;30729;49.486;10.792;2023-03-11T11:33:51;3.28;;;1.27;;
44995;SDS011;30729;49.486;10.792;2023-03-11T11:37:24;2.90;;;1.30;;
44995;SDS011;30729;49.486;10.792;2023-03-11T11:40:49;8.02;;;3.47;;
44995;SDS011;30729;49.486;10.792;2023-03-11T11:44:14;4.65;;;1.50;;
44995;SDS011;30729;49.486;10.792;2023-03-11T11:47:48;5.55;;;1.45;;
44995;SDS011;30729;49.486;10.792;2023-03-11T11:51:27;3.38;;;1.17;;
44995;SDS011;30729;49.486;10.792;2023-03-11T11:55:04;3.03;;;1.27;;
44995;SDS011;30729;49.486;10.792;2023-03-11T11:58:29;4.20;;;1.90;;
44995;SDS011;30729;49.486;10.792;2023-03-11T12:06:03;5.32;;;2.17;;
44995;SDS011;30729;49.486;10.792;2023-03-11T12:17:10;4.25;;;1.90;;
44995;SDS011;30729;49.486;10.792;2023-03-11T12:20:45;3.50;;;1.40;;
44995;SDS011;30729;49.486;10.792;2023-03-11T12:28:19;6.05;;;1.98;;
44995;SDS011;30729;49.486;10.792;2023-03-11T12:31:45;5.38;;;2.00;;
44995;SDS011;30729;49.486;10.792;2023-03-11T12:35:29;3.05;;;1.52;;
44995;SDS011;30729;49.486;10.792;2023-03-11T12:38:56;4.22;;;1.75;;
44995;SDS011;30729;49.486;10.792;2023-03-11T12:42:21;3.38;;;1.80;;
44995;SDS011;30729;49.486;10.792;2023-03-11T12:46:15;4.78;;;1.65;;
44995;SDS011;30729;49.486;10.792;2023-03-11T12:57:55;3.88;;;1.27;;
44995;SDS011;30729;49.486;10.792;2023-03-11T13:01:23;4.22;;;1.80;;
44995;SDS011;30729;49.486;10.792;2023-03-11T13:05:16;4.05;;;1.77;;
44995;SDS011;30729;49.486;10.792;2023-03-11T13:08:47;3.97;;;1.40;;
44995;SDS011;30729;49.486;10.792;2023-03-11T13:19:50;3.40;;;1.58;;
44995;SDS011;30729;49.486;10.792;2023-03-11T13:23:21;3.30;;;1.10;;
44995;SDS011;30729;49.486;10.792;2023-03-11T13:30:23;4.18;;;1.50;;
44995;SDS011;30729;49.486;10.792;2023-03-11T13:34:11;5.60;;;1.80;;
44995;SDS011;30729;49.486;10.792;2023-03-11T13:38:08;5.15;;;1.80;;
44995;SDS011;30729;49.486;10.792;2023-03-11T13:41:36;2.45;;;1.33;;
44995;SDS011;30729;49.486;10.792;2023-03-11T13:45:06;3.15;;;1.40;;
44995;SDS011;30729;49.486;10.792;2023-03-11T13:48:42;4.38;;;1.42;;
44995;SDS011;30729;49.486;10.792;2023-03-11T13:52:49;5.22;;;1.52;;
44995;SDS011;30729;49.486;10.792;2023-03-11T13:56:16;7.30;;;1.50;;
44995;SDS011;30729;49.486;10.792;2023-03-11T13:59:52;4.47;;;1.50;;
44995;SDS011;30729;49.486;10.792;2023-03-11T14:03:18;6.45;;;1.88;;
44995;SDS011;30729;49.486;10.792;2023-03-11T14:06:49;3.47;;;1.58;;
44995;SDS011;30729;49.486;10.792;2023-03-11T14:10:24;3.25;;;1.45;;
44995;SDS011;30729;49.486;10.792;2023-03-11T14:13:53;3.85;;;1.50;;
44995;SDS011;30729;49.486;10.792;2023-03-11T14:17:26;3.70;;;1.73;;
44995;SDS011;30729;49.486;10.792;2023-03-11T14:20:52;4.25;;;1.90;;
44995;SDS011;30729;49.486;10.792;2023-03-11T14:24:17;4.05;;;1.67;;
44995;SDS011;30729;49.486;10.792;2023-03-11T14:27:49;5.47;;;2.63;;
44995;SDS011;30729;49.486;10.792;2023-03-11T14:31:32;6.10;;;2.50;;
44995;SDS011;30729;49.486;10.792;2023-03-11T14:34:58;3.78;;;1.80;;
44995;SDS011;30729;49.486;10.792;2023-03-11T14:38:25;3.97;;;1.80;;
44995;SDS011;30729;49.486;10.792;2023-03-11T14:41:49;5.38;;;2.33;;
44995;SDS011;30729;49.486;10.792;2023-03-11T14:45:17;7.35;;;2.50;;
44995;SDS011;30729;49.486;10.792;2023-03-11T14:48:48;3.35;;;1.75;;
44995;SDS011;30729;49.486;10.792;2023-03-11T14:52:18;3.60;;;1.50;;
44995;SDS011;30729;49.486;10.792;2023-03-11T14:55:51;4.82;;;2.13;;
44995;SDS011;30729;49.486;10.792;2023-03-11T14:59:27;5.78;;;2.00;;
44995;SDS011;30729;49.486;10.792;2023-03-11T15:02:55;5.47;;;1.80;;
44995;SDS011;30729;49.486;10.792;2023-03-11T15:06:27;4.35;;;1.70;;
44995;SDS011;30729;49.486;10.792;2023-03-11T15:09:52;5.53;;;1.80;;
44995;SDS011;30729;49.486;10.792;2023-03-11T15:13:30;3.47;;;1.70;;
44995;SDS011;30729;49.486;10.792;2023-03-11T15:20:45;6.00;;;1.85;;
44995;SDS011;30729;49.486;10.792;2023-03-11T15:24:20;3.58;;;1.70;;
44995;SDS011;30729;49.486;10.792;2023-03-11T15:27:44;6.82;;;1.60;;
44995;SDS011;30729;49.486;10.792;2023-03-11T15:34:57;6.72;;;2.58;;
44995;SDS011;30729;49.486;10.792;2023-03-11T15:38:22;3.58;;;1.90;;
44995;SDS011;30729;49.486;10.792;2023-03-11T15:41:57;5.53;;;1.77;;
44995;SDS011;30729;49.486;10.792;2023-03-11T15:45:41;4.88;;;1.77;;
44995;SDS011;30729;49.486;10.792;2023-03-11T15:49:08;9.93;;;2.20;;
44995;SDS011;30729;49.486;10.792;2023-03-11T15:52:43;6.20;;;2.25;;
44995;SDS011;30729;49.486;10.792;2023-03-11T15:56:09;4.68;;;1.88;;
44995;SDS011;30729;49.486;10.792;2023-03-11T15:59:41;7.10;;;2.40;;
44995;SDS011;30729;49.486;10.792;2023-03-11T16:03:07;3.55;;;1.60;;
44995;SDS011;30729;49.486;10.792;2023-03-11T16:06:39;6.68;;;1.60;;
44995;SDS011;30729;49.486;10.792;2023-03-11T16:10:02;6.80;;;2.38;;
44995;SDS011;30729;49.486;10.792;2023-03-11T16:13:26;3.63;;;1.63;;
44995;SDS011;30729;49.486;10.792;2023-03-11T16:16:50;3.75;;;1.80;;
44995;SDS011;30729;49.486;10.792;2023-03-11T16:20:16;4.13;;;1.70;;
44995;SDS011;30729;49.486;10.792;2023-03-11T16:23:41;5.47;;;1.63;;
44995;SDS011;30729;49.486;10.792;2023-03-11T16:27:05;4.55;;;1.77;;
44995;SDS011;30729;49.486;10.792;2023-03-11T16:30:30;7.68;;;2.15;;
44995;SDS011;30729;49.486;10.792;2023-03-11T16:33:56;5.10;;;2.05;;
44995;SDS011;30729;49.486;10.792;2023-03-11T16:37:19;5.55;;;1.88;;
44995;SDS011;30729;49.486;10.792;2023-03-11T16:40:44;6.25;;;2.10;;
44995;SDS011;30729;49.486;10.792;2023-03-11T16:44:17;6.57;;;2.20;;
44995;SDS011;30729;49.486;10.792;2023-03-11T16:47:42;5.82;;;2.28;;
44995;SDS011;30729;49.486;10.792;2023-03-11T16:51:05;6.07;;;1.88;;
44995;SDS011;30729;49.486;10.792;2023-03-11T16:54:29;5.72;;;2.65;;
44995;SDS011;30729;49.486;10.792;2023-03-11T16:57:54;8.70;;;2.88;;
44995;SDS011;30729;49.486;10.792;2023-03-11T17:01:18;8.95;;;2.53;;
44995;SDS011;30729;49.486;10.792;2023-03-11T17:04:42;7.45;;;2.63;;
44995;SDS011;30729;49.486;10.792;2023-03-11T17:08:07;16.27;;;6.22;;
44995;SDS011;30729;49.486;10.792;2023-03-11T17:11:31;7.45;;;3.55;;
44995;SDS011;30729;49.486;10.792;2023-03-11T17:14:55;8.30;;;3.28;;
44995;SDS011;30729;49.486;10.792;2023-03-11T17:18:23;6.38;;;3.10;;
44995;SDS011;30729;49.486;10.792;2023-03-11T17:21:48;9.50;;;3.83;;
44995;SDS011;30729;49.486;10.792;2023-03-11T17:25:12;9.77;;;3.83;;
44995;SDS011;30729;49.486;10.792;2023-03-11T17:28:38;8.82;;;3.75;;
44995;SDS011;30729;49.486;10.792;2023-03-11T17:32:02;10.70;;;4.38;;
44995;SDS011;30729;49.486;10.792;2023-03-11T17:35:26;8.25;;;3.72;;
44995;SDS011;30729;49.486;10.792;2023-03-11T17:38:51;8.73;;;3.33;;
44995;SDS011;30729;49.486;10.792;2023-03-11T17:42:15;9.27;;;3.65;;
44995;SDS011;30729;49.486;10.792;2023-03-11T17:45:40;8.57;;;3.60;;
44995;SDS011;30729;49.486;10.792;2023-03-11T17:49:05;9.60;;;3.55;;
44995;SDS011;30729;49.486;10.792;2023-03-11T17:52:29;7.38;;;3.35;;
44995;SDS011;30729;49.486;10.792;2023-03-11T17:55:53;10.98;;;3.35;;
44995;SDS011;30729;49.486;10.792;2023-03-11T17:59:18;5.88;;;2.53;;
44995;SDS011;30729;49.486;10.792;2023-03-11T18:02:42;5.47;;;2.10;;
44995;SDS011;30729;49.486;10.792;2023-03-11T18:06:06;8.35;;;3.55;;
44995;SDS011;30729;49.486;10.792;2023-03-11T18:09:30;30.05;;;10.05;;
44995;SDS011;30729;49.486;10.792;2023-03-11T18:12:54;27.65;;;13.02;;
44995;SDS011;30729;49.486;10.792;2023-03-11T18:16:19;26.55;;;11.00;;
44995;SDS011;30729;49.486;10.792;2023-03-11T18:19:45;26.08;;;12.10;;
44995;SDS011;30729;49.486;10.792;2023-03-11T18:23:08;23.95;;;11.35;;
44995;SDS011;30729;49.486;10.792;2023-03-11T18:26:32;23.02;;;9.18;;
44995;SDS011;30729;49.486;10.792;2023-03-11T18:29:56;16.80;;;6.60;;
44995;SDS011;30729;49.486;10.792;2023-03-11T18:33:21;18.05;;;6.68;;
44995;SDS011;30729;49.486;10.792;2023-03-11T18:36:47;16.33;;;6.35;;
44995;SDS011;30729;49.486;10.792;2023-03-11T18:40:11;15.27;;;6.93;;
44995;SDS011;30729;49.486;10.792;2023-03-11T18:43:35;18.05;;;7.80;;
44995;SDS011;30729;49.486;10.792;2023-03-11T18:46:59;15.23;;;6.97;;
44995;SDS011;30729;49.486;10.792;2023-03-11T18:50:23;14.57;;;6.10;;
44995;SDS011;30729;49.486;10.792;2023-03-11T18:53:47;15.07;;;5.47;;
44995;SDS011;30729;49.486;10.792;2023-03-11T18:57:11;14.07;;;7.63;;
44995;SDS011;30729;49.486;10.792;2023-03-11T19:00:35;17.90;;;9.88;;
44995;SDS011;30729;49.486;10.792;2023-03-11T19:03:59;14.95;;;9.07;;
44995;SDS011;30729;49.486;10.792;2023-03-11T19:07:23;13.38;;;7.65;;
44995;SDS011;30729;49.486;10.792;2023-03-11T19:10:47;11.25;;;5.82;;
44995;SDS011;30729;49.486;10.792;2023-03-11T19:14:11;13.93;;;6.13;;
44995;SDS011;30729;49.486;10.792;2023-03-11T19:17:35;14.02;;;7.50;;
44995;SDS011;30729;49.486;10.792;2023-03-11T19:21:00;13.88;;;7.28;;
44995;SDS011;30729;49.486;10.792;2023-03-11T19:24:24;10.82;;;6.13;;
44995;SDS011;30729;49.486;10.792;2023-03-11T19:27:52;12.95;;;7.55;;
44995;SDS011;30729;49.486;10.792;2023-03-11T19:31:16;16.48;;;7.93;;
44995;SDS011;30729;49.486;10.792;2023-03-11T19:34:40;16.38;;;7.72;;
44995;SDS011;30729;49.486;10.792;2023-03-11T19:38:04;19.30;;;8.93;;
44995;SDS011;30729;49.486;10.792;2023-03-11T19:41:28;9.45;;;4.63;;
44995;SDS011;30729;49.486;10.792;2023-03-11T19:44:52;12.43;;;5.22;;
44995;SDS011;30729;49.486;10.792;2023-03-11T19:48:16;19.52;;;8.48;;
44995;SDS011;30729;49.486;10.792;2023-03-11T19:51:40;12.00;;;6.80;;
44995;SDS011;30729;49.486;10.792;2023-03-11T19:55:04;15.05;;;6.78;;
44995;SDS011;30729;49.486;10.792;2023-03-11T19:58:29;11.75;;;5.00;;
44995;SDS011;30729;49.486;10.792;2023-03-11T20:01:53;32.70;;;10.75;;
44995;SDS011;30729;49.486;10.792;2023-03-11T20:05:18;33.63;;;16.20;;
44995;SDS011;30729;49.486;10.792;2023-03-11T20:08:44;25.70;;;12.40;;
44995;SDS011;30729;49.486;10.792;2023-03-11T20:12:08;29.42;;;12.10;;
44995;SDS011;30729;49.486;10.792;2023-03-11T20:15:33;21.30;;;9.98;;
44995;SDS011;30729;49.486;10.792;2023-03-11T20:18:57;21.33;;;8.75;;
44995;SDS011;30729;49.486;10.792;2023-03-11T20:22:21;16.50;;;8.07;;
44995;SDS011;30729;49.486;10.792;2023-03-11T20:25:45;11.82;;;5.47;;
44995;SDS011;30729;49.486;10.792;2023-03-11T20:29:09;11.50;;;5.28;;
44995;SDS011;30729;49.486;10.792;2023-03-11T20:32:33;10.18;;;3.83;;
44995;SDS011;30729;49.486;10.792;2023-03-11T20:36:05;6.75;;;3.38;;
44995;SDS011;30729;49.486;10.792;2023-03-11T20:39:29;10.38;;;4.90;;
44995;SDS011;30729;49.486;10.792;2023-03-11T20:42:53;11.77;;;6.68;;
44995;SDS011;30729;49.486;10.792;2023-03-11T20:46:18;36.75;;;15.60;;
44995;SDS011;30729;49.486;10.792;2023-03-11T20:49:42;24.63;;;12.93;;
44995;SDS011;30729;49.486;10.792;2023-03-11T20:53:06;13.73;;;8.93;;
44995;SDS011;30729;49.486;10.792;2023-03-11T20:56:30;39.72;;;16.20;;
44995;SDS011;30729;49.486;10.792;2023-03-11T20:59:54;20.50;;;11.20;;
44995;SDS011;30729;49.486;10.792;2023-03-11T21:03:17;22.48;;;10.52;;
44995;SDS011;30729;49.486;10.792;2023-03-11T21:06:42;22.15;;;8.98;;
44995;SDS011;30729;49.486;10.792;2023-03-11T21:10:07;24.10;;;9.10;;
44995;SDS011;30729;49.486;10.792;2023-03-11T21:13:31;16.88;;;8.68;;
44995;SDS011;30729;49.486;10.792;2023-03-11T21:16:55;18.48;;;8.38;;
44995;SDS011;30729;49.486;10.792;2023-03-11T21:20:19;17.48;;;7.63;;
44995;SDS011;30729;49.486;10.792;2023-03-11T21:23:44;15.73;;;6.07;;
44995;SDS011;30729;49.486;10.792;2023-03-11T21:27:09;12.38;;;5.20;;
44995;SDS011;30729;49.486;10.792;2023-03-11T21:30:33;11.30;;;4.75;;
44995;SDS011;30729;49.486;10.792;2023-03-11T21:33:58;12.73;;;4.45;;